sensor_id;sensor_type;location;lat;lon;timestamp;temperature;humidity
28336;DHT22;15592;53.656;7.276;2022-12-11T00:01:21;-0.40;99.90
28336;DHT22;15592;53.656;7.276;2022-12-11T00:03:47;-0.40;99.90
28336;DHT22;15592;53.656;7.276;2022-12-11T00:06:15;-0.40;99.90
28336;DHT22;15592;53.656;7.276;2022-12-11T00:08:41;-0.40;99.90
28336;DHT22;15592;53.656;7.276;2022-12-11T00:11:08;-0.30;99.90
28336;DHT22;15592;53.656;7.276;2022-12-11T00:13:34;-0.30;99.90
28336;DHT22;15592;53.656;7.276;2022-12-11T00:16:00;-0.30;99.90
28336;DHT22;15592;53.656;7.276;2022-12-11T00:18:25;-0.30;99.90
28336;DHT22;15592;53.656;7.276;2022-12-11T00:20:51;-0.30;99.90
28336;DHT22;15592;53.656;7.276;2022-12-11T00:23:17;-0.30;99.90
28336;DHT22;15592;53.656;7.276;2022-12-11T00:25:44;-0.40;99.90
28336;DHT22;15592;53.656;7.276;2022-12-11T00:28:11;-0.30;99.90
28336;DHT22;15592;53.656;7.276;2022-12-11T00:30:39;-0.30;99.90
28336;DHT22;15592;53.656;7.276;2022-12-11T00:33:05;-0.30;99.90
28336;DHT22;15592;53.656;7.276;2022-12-11T00:35:30;-0.40;99.90
28336;DHT22;15592;53.656;7.276;2022-12-11T00:37:56;-0.30;99.90
28336;DHT22;15592;53.656;7.276;2022-12-11T00:40:22;-0.30;99.90
28336;DHT22;15592;53.656;7.276;2022-12-11T00:42:47;-0.30;99.90
28336;DHT22;15592;53.656;7.276;2022-12-11T00:45:13;-0.30;99.90
28336;DHT22;15592;53.656;7.276;2022-12-11T00:47:39;-0.30;99.90
28336;DHT22;15592;53.656;7.276;2022-12-11T00:50:05;-0.30;99.90
28336;DHT22;15592;53.656;7.276;2022-12-11T00:52:30;-0.30;99.90
28336;DHT22;15592;53.656;7.276;2022-12-11T00:54:56;-0.30;99.90
28336;DHT22;15592;53.656;7.276;2022-12-11T00:57:22;-0.40;99.90
28336;DHT22;15592;53.656;7.276;2022-12-11T00:59:47;-0.30;99.90
28336;DHT22;15592;53.656;7.276;2022-12-11T01:02:13;-0.40;99.90
28336;DHT22;15592;53.656;7.276;2022-12-11T01:04:38;-0.40;99.90
28336;DHT22;15592;53.656;7.276;2022-12-11T01:07:04;-0.40;99.90
28336;DHT22;15592;53.656;7.276;2022-12-11T01:09:30;-0.30;99.90
28336;DHT22;15592;53.656;7.276;2022-12-11T01:12:14;-0.40;99.90
28336;DHT22;15592;53.656;7.276;2022-12-11T01:14:39;-0.40;99.90
28336;DHT22;15592;53.656;7.276;2022-12-11T01:17:05;-0.40;99.90
28336;DHT22;15592;53.656;7.276;2022-12-11T01:19:30;-0.30;99.90
28336;DHT22;15592;53.656;7.276;2022-12-11T01:21:56;-0.30;99.90
28336;DHT22;15592;53.656;7.276;2022-12-11T01:24:22;-0.30;99.90
28336;DHT22;15592;53.656;7.276;2022-12-11T01:26:47;-0.40;99.90
28336;DHT22;15592;53.656;7.276;2022-12-11T01:29:13;-0.40;99.90
28336;DHT22;15592;53.656;7.276;2022-12-11T01:31:39;-0.30;99.90
28336;DHT22;15592;53.656;7.276;2022-12-11T01:34:05;-0.40;99.90
28336;DHT22;15592;53.656;7.276;2022-12-11T01:36:31;-0.40;99.90
28336;DHT22;15592;53.656;7.276;2022-12-11T01:38:57;-0.40;99.90
28336;DHT22;15592;53.656;7.276;2022-12-11T01:41:22;-0.40;99.90
28336;DHT22;15592;53.656;7.276;2022-12-11T01:43:56;-0.40;99.90
28336;DHT22;15592;53.656;7.276;2022-12-11T01:46:22;-0.40;99.90
28336;DHT22;15592;53.656;7.276;2022-12-11T01:48:48;-0.40;99.90
28336;DHT22;15592;53.656;7.276;2022-12-11T01:51:14;-0.40;99.90
28336;DHT22;15592;53.656;7.276;2022-12-11T01:53:42;-0.40;99.90
28336;DHT22;15592;53.656;7.276;2022-12-11T01:56:10;-0.30;99.90
28336;DHT22;15592;53.656;7.276;2022-12-11T01:58:43;-0.40;99.90
28336;DHT22;15592;53.656;7.276;2022-12-11T02:01:16;-0.40;99.90
28336;DHT22;15592;53.656;7.276;2022-12-11T02:03:42;-0.40;99.90
28336;DHT22;15592;53.656;7.276;2022-12-11T02:06:29;-0.40;99.90
28336;DHT22;15592;53.656;7.276;2022-12-11T02:08:55;-0.40;99.90
28336;DHT22;15592;53.656;7.276;2022-12-11T02:11:24;-0.40;99.90
28336;DHT22;15592;53.656;7.276;2022-12-11T02:14:01;-0.40;99.90
28336;DHT22;15592;53.656;7.276;2022-12-11T02:16:49;-0.40;99.90
28336;DHT22;15592;53.656;7.276;2022-12-11T02:19:56;-0.40;99.90
28336;DHT22;15592;53.656;7.276;2022-12-11T02:22:39;-0.40;99.90
28336;DHT22;15592;53.656;7.276;2022-12-11T02:28:01;-0.40;99.90
28336;DHT22;15592;53.656;7.276;2022-12-11T02:30:28;-0.40;99.90
28336;DHT22;15592;53.656;7.276;2022-12-11T02:32:56;-0.40;99.90
28336;DHT22;15592;53.656;7.276;2022-12-11T02:35:29;-0.40;99.90
28336;DHT22;15592;53.656;7.276;2022-12-11T02:38:00;-0.40;99.90
28336;DHT22;15592;53.656;7.276;2022-12-11T02:40:30;-0.40;99.90
28336;DHT22;15592;53.656;7.276;2022-12-11T02:43:00;-0.40;99.90
28336;DHT22;15592;53.656;7.276;2022-12-11T02:45:27;-0.40;99.90
28336;DHT22;15592;53.656;7.276;2022-12-11T02:47:55;-0.40;99.90
28336;DHT22;15592;53.656;7.276;2022-12-11T02:50:22;-0.50;99.90
28336;DHT22;15592;53.656;7.276;2022-12-11T02:52:52;-0.40;99.90
28336;DHT22;15592;53.656;7.276;2022-12-11T02:55:18;-0.40;99.90
28336;DHT22;15592;53.656;7.276;2022-12-11T02:57:51;-0.40;99.90
28336;DHT22;15592;53.656;7.276;2022-12-11T03:00:19;-0.40;99.90
28336;DHT22;15592;53.656;7.276;2022-12-11T03:02:46;-0.50;99.90
28336;DHT22;15592;53.656;7.276;2022-12-11T03:05:13;-0.50;99.90
28336;DHT22;15592;53.656;7.276;2022-12-11T03:07:41;-0.50;99.90
28336;DHT22;15592;53.656;7.276;2022-12-11T03:10:09;-0.50;99.90
28336;DHT22;15592;53.656;7.276;2022-12-11T03:12:37;-0.50;99.90
28336;DHT22;15592;53.656;7.276;2022-12-11T03:15:08;-0.50;99.90
28336;DHT22;15592;53.656;7.276;2022-12-11T03:28:26;-0.60;99.90
28336;DHT22;15592;53.656;7.276;2022-12-11T03:30:55;-0.60;99.90
28336;DHT22;15592;53.656;7.276;2022-12-11T03:33:33;-0.60;99.90
28336;DHT22;15592;53.656;7.276;2022-12-11T03:36:06;-0.70;99.90
28336;DHT22;15592;53.656;7.276;2022-12-11T03:38:43;-0.60;99.90
28336;DHT22;15592;53.656;7.276;2022-12-11T03:41:10;-0.60;99.90
28336;DHT22;15592;53.656;7.276;2022-12-11T03:43:39;-0.70;99.90
28336;DHT22;15592;53.656;7.276;2022-12-11T03:46:07;-0.70;99.90
28336;DHT22;15592;53.656;7.276;2022-12-11T03:48:36;-0.70;99.90
28336;DHT22;15592;53.656;7.276;2022-12-11T03:51:04;-0.70;99.90
28336;DHT22;15592;53.656;7.276;2022-12-11T03:53:32;-0.60;99.90
28336;DHT22;15592;53.656;7.276;2022-12-11T03:55:59;-0.70;99.90
28336;DHT22;15592;53.656;7.276;2022-12-11T03:58:26;-0.70;99.90
28336;DHT22;15592;53.656;7.276;2022-12-11T04:00:52;-0.70;99.90
28336;DHT22;15592;53.656;7.276;2022-12-11T04:03:17;-0.70;99.90
28336;DHT22;15592;53.656;7.276;2022-12-11T04:05:48;-0.70;99.90
28336;DHT22;15592;53.656;7.276;2022-12-11T04:08:15;-0.70;99.90
28336;DHT22;15592;53.656;7.276;2022-12-11T04:10:42;-0.70;99.90
28336;DHT22;15592;53.656;7.276;2022-12-11T04:13:08;-0.70;99.90
28336;DHT22;15592;53.656;7.276;2022-12-11T04:15:35;-0.70;99.90
28336;DHT22;15592;53.656;7.276;2022-12-11T04:18:01;-0.70;99.90
28336;DHT22;15592;53.656;7.276;2022-12-11T04:20:45;-0.70;99.90
28336;DHT22;15592;53.656;7.276;2022-12-11T04:23:29;-0.70;99.90
28336;DHT22;15592;53.656;7.276;2022-12-11T04:26:16;-0.70;99.90
28336;DHT22;15592;53.656;7.276;2022-12-11T04:28:44;-0.60;99.90
28336;DHT22;15592;53.656;7.276;2022-12-11T04:31:12;-0.60;99.90
28336;DHT22;15592;53.656;7.276;2022-12-11T04:33:38;-0.60;99.90
28336;DHT22;15592;53.656;7.276;2022-12-11T04:36:04;-0.60;99.90
28336;DHT22;15592;53.656;7.276;2022-12-11T04:38:30;-0.60;99.90
28336;DHT22;15592;53.656;7.276;2022-12-11T04:41:01;-0.60;99.90
28336;DHT22;15592;53.656;7.276;2022-12-11T04:43:27;-0.60;99.90
28336;DHT22;15592;53.656;7.276;2022-12-11T04:46:12;-0.60;99.90
28336;DHT22;15592;53.656;7.276;2022-12-11T04:48:38;-0.60;99.90
28336;DHT22;15592;53.656;7.276;2022-12-11T04:51:04;-0.50;99.90
28336;DHT22;15592;53.656;7.276;2022-12-11T04:53:30;-0.50;99.90
28336;DHT22;15592;53.656;7.276;2022-12-11T04:55:55;-0.60;99.90
28336;DHT22;15592;53.656;7.276;2022-12-11T04:58:22;-0.50;99.90
28336;DHT22;15592;53.656;7.276;2022-12-11T05:00:48;-0.50;99.90
28336;DHT22;15592;53.656;7.276;2022-12-11T05:03:13;-0.50;99.90
28336;DHT22;15592;53.656;7.276;2022-12-11T05:05:39;-0.50;99.90
28336;DHT22;15592;53.656;7.276;2022-12-11T05:08:05;-0.50;99.90
28336;DHT22;15592;53.656;7.276;2022-12-11T05:10:31;-0.50;99.90
28336;DHT22;15592;53.656;7.276;2022-12-11T05:12:57;-0.40;99.90
28336;DHT22;15592;53.656;7.276;2022-12-11T05:15:22;-0.50;99.90
28336;DHT22;15592;53.656;7.276;2022-12-11T05:17:48;-0.40;99.90
28336;DHT22;15592;53.656;7.276;2022-12-11T05:20:13;-0.40;99.90
28336;DHT22;15592;53.656;7.276;2022-12-11T05:22:39;-0.40;99.90
28336;DHT22;15592;53.656;7.276;2022-12-11T05:25:05;-0.40;99.90
28336;DHT22;15592;53.656;7.276;2022-12-11T05:27:32;-0.40;99.90
28336;DHT22;15592;53.656;7.276;2022-12-11T05:29:58;-0.30;99.90
28336;DHT22;15592;53.656;7.276;2022-12-11T05:32:23;-0.30;99.90
28336;DHT22;15592;53.656;7.276;2022-12-11T05:34:49;-0.30;99.90
28336;DHT22;15592;53.656;7.276;2022-12-11T05:37:15;-0.30;99.90
28336;DHT22;15592;53.656;7.276;2022-12-11T05:39:41;-0.30;99.90
28336;DHT22;15592;53.656;7.276;2022-12-11T05:42:07;-0.30;99.90
28336;DHT22;15592;53.656;7.276;2022-12-11T05:44:33;-0.30;99.90
28336;DHT22;15592;53.656;7.276;2022-12-11T05:46:58;-0.30;99.90
28336;DHT22;15592;53.656;7.276;2022-12-11T05:49:24;-0.30;99.90
28336;DHT22;15592;53.656;7.276;2022-12-11T05:51:50;-0.30;99.90
28336;DHT22;15592;53.656;7.276;2022-12-11T05:54:15;-0.30;99.90
28336;DHT22;15592;53.656;7.276;2022-12-11T05:56:41;-0.30;99.90
28336;DHT22;15592;53.656;7.276;2022-12-11T05:59:07;-0.30;99.90
28336;DHT22;15592;53.656;7.276;2022-12-11T06:01:38;-0.30;99.90
28336;DHT22;15592;53.656;7.276;2022-12-11T06:04:05;-0.30;99.90
28336;DHT22;15592;53.656;7.276;2022-12-11T06:06:32;-0.30;99.90
28336;DHT22;15592;53.656;7.276;2022-12-11T06:08:59;-0.30;99.90
28336;DHT22;15592;53.656;7.276;2022-12-11T06:11:26;-0.30;99.90
28336;DHT22;15592;53.656;7.276;2022-12-11T06:13:52;-0.30;99.90
28336;DHT22;15592;53.656;7.276;2022-12-11T06:16:19;-0.30;99.90
28336;DHT22;15592;53.656;7.276;2022-12-11T06:18:45;-0.30;99.90
28336;DHT22;15592;53.656;7.276;2022-12-11T06:23:37;-0.30;99.90
28336;DHT22;15592;53.656;7.276;2022-12-11T06:26:03;-0.30;99.90
28336;DHT22;15592;53.656;7.276;2022-12-11T06:28:29;-0.20;99.90
28336;DHT22;15592;53.656;7.276;2022-12-11T06:30:58;-0.20;99.90
28336;DHT22;15592;53.656;7.276;2022-12-11T06:33:23;-0.20;99.90
28336;DHT22;15592;53.656;7.276;2022-12-11T06:35:50;-0.20;99.90
28336;DHT22;15592;53.656;7.276;2022-12-11T06:38:15;-0.10;99.90
28336;DHT22;15592;53.656;7.276;2022-12-11T06:40:42;-0.10;99.90
28336;DHT22;15592;53.656;7.276;2022-12-11T06:43:07;-0.20;99.90
28336;DHT22;15592;53.656;7.276;2022-12-11T06:45:33;-0.10;99.90
28336;DHT22;15592;53.656;7.276;2022-12-11T06:47:59;-0.10;99.90
28336;DHT22;15592;53.656;7.276;2022-12-11T06:50:24;-0.10;99.90
28336;DHT22;15592;53.656;7.276;2022-12-11T06:52:50;-0.10;99.90
28336;DHT22;15592;53.656;7.276;2022-12-11T06:55:16;-0.10;99.90
28336;DHT22;15592;53.656;7.276;2022-12-11T06:57:42;-0.10;99.90
28336;DHT22;15592;53.656;7.276;2022-12-11T07:00:08;-0.10;99.90
28336;DHT22;15592;53.656;7.276;2022-12-11T07:02:34;-0.10;99.90
28336;DHT22;15592;53.656;7.276;2022-12-11T07:04:59;-0.10;99.90
28336;DHT22;15592;53.656;7.276;2022-12-11T07:07:25;-0.10;99.90
28336;DHT22;15592;53.656;7.276;2022-12-11T07:09:51;0.00;99.90
28336;DHT22;15592;53.656;7.276;2022-12-11T07:12:16;0.00;99.90
28336;DHT22;15592;53.656;7.276;2022-12-11T07:14:42;-0.10;99.90
28336;DHT22;15592;53.656;7.276;2022-12-11T07:17:08;0.00;99.90
28336;DHT22;15592;53.656;7.276;2022-12-11T07:19:34;0.00;99.90
28336;DHT22;15592;53.656;7.276;2022-12-11T07:21:59;-0.10;99.90
28336;DHT22;15592;53.656;7.276;2022-12-11T07:24:25;0.00;99.90
28336;DHT22;15592;53.656;7.276;2022-12-11T07:26:51;0.00;99.90
28336;DHT22;15592;53.656;7.276;2022-12-11T07:29:17;0.00;99.90
28336;DHT22;15592;53.656;7.276;2022-12-11T07:31:43;0.00;99.90
28336;DHT22;15592;53.656;7.276;2022-12-11T07:34:11;0.00;99.90
28336;DHT22;15592;53.656;7.276;2022-12-11T07:36:38;0.00;99.90
28336;DHT22;15592;53.656;7.276;2022-12-11T07:39:03;0.00;99.90
28336;DHT22;15592;53.656;7.276;2022-12-11T07:41:29;0.00;99.90
28336;DHT22;15592;53.656;7.276;2022-12-11T07:43:57;0.00;99.90
28336;DHT22;15592;53.656;7.276;2022-12-11T07:46:25;0.00;99.90
28336;DHT22;15592;53.656;7.276;2022-12-11T07:48:51;0.00;99.90
28336;DHT22;15592;53.656;7.276;2022-12-11T07:51:21;0.00;99.90
28336;DHT22;15592;53.656;7.276;2022-12-11T07:53:49;0.00;99.90
28336;DHT22;15592;53.656;7.276;2022-12-11T07:56:16;0.00;99.90
28336;DHT22;15592;53.656;7.276;2022-12-11T07:58:42;0.00;99.90
28336;DHT22;15592;53.656;7.276;2022-12-11T08:01:13;0.00;99.90
28336;DHT22;15592;53.656;7.276;2022-12-11T08:03:40;0.00;99.90
28336;DHT22;15592;53.656;7.276;2022-12-11T08:06:05;0.00;99.90
28336;DHT22;15592;53.656;7.276;2022-12-11T08:08:31;0.00;99.90
28336;DHT22;15592;53.656;7.276;2022-12-11T08:11:05;0.10;99.90
28336;DHT22;15592;53.656;7.276;2022-12-11T08:13:30;0.00;99.90
28336;DHT22;15592;53.656;7.276;2022-12-11T08:15:56;0.10;99.90
28336;DHT22;15592;53.656;7.276;2022-12-11T08:18:22;0.00;99.90
28336;DHT22;15592;53.656;7.276;2022-12-11T08:20:48;0.10;99.90
28336;DHT22;15592;53.656;7.276;2022-12-11T08:23:13;0.10;99.90
28336;DHT22;15592;53.656;7.276;2022-12-11T08:25:39;0.10;99.90
28336;DHT22;15592;53.656;7.276;2022-12-11T08:28:05;0.10;99.90
28336;DHT22;15592;53.656;7.276;2022-12-11T08:30:30;0.10;99.90
28336;DHT22;15592;53.656;7.276;2022-12-11T08:32:56;0.10;99.90
28336;DHT22;15592;53.656;7.276;2022-12-11T08:35:22;0.10;99.90
28336;DHT22;15592;53.656;7.276;2022-12-11T08:37:47;0.10;99.90
28336;DHT22;15592;53.656;7.276;2022-12-11T08:40:13;0.10;99.90
28336;DHT22;15592;53.656;7.276;2022-12-11T08:42:39;0.10;99.90
28336;DHT22;15592;53.656;7.276;2022-12-11T08:45:05;0.10;99.90
28336;DHT22;15592;53.656;7.276;2022-12-11T08:47:31;0.20;99.90
28336;DHT22;15592;53.656;7.276;2022-12-11T08:49:56;0.20;99.90
28336;DHT22;15592;53.656;7.276;2022-12-11T08:52:22;0.20;99.90
28336;DHT22;15592;53.656;7.276;2022-12-11T08:54:48;0.10;99.90
28336;DHT22;15592;53.656;7.276;2022-12-11T08:57:13;0.20;99.90
28336;DHT22;15592;53.656;7.276;2022-12-11T08:59:39;0.20;99.90
28336;DHT22;15592;53.656;7.276;2022-12-11T09:02:05;0.20;99.90
28336;DHT22;15592;53.656;7.276;2022-12-11T09:04:31;0.20;99.90
28336;DHT22;15592;53.656;7.276;2022-12-11T09:06:57;0.20;99.90
28336;DHT22;15592;53.656;7.276;2022-12-11T09:09:22;0.20;99.90
28336;DHT22;15592;53.656;7.276;2022-12-11T09:11:48;0.20;99.90
28336;DHT22;15592;53.656;7.276;2022-12-11T09:14:14;0.20;99.90
28336;DHT22;15592;53.656;7.276;2022-12-11T09:16:41;0.10;99.90
28336;DHT22;15592;53.656;7.276;2022-12-11T09:19:11;0.10;99.90
28336;DHT22;15592;53.656;7.276;2022-12-11T09:21:38;0.10;99.90
28336;DHT22;15592;53.656;7.276;2022-12-11T09:24:04;0.20;99.90
28336;DHT22;15592;53.656;7.276;2022-12-11T09:26:30;0.20;99.90
28336;DHT22;15592;53.656;7.276;2022-12-11T09:28:56;0.10;99.90
28336;DHT22;15592;53.656;7.276;2022-12-11T09:31:25;0.20;99.90
28336;DHT22;15592;53.656;7.276;2022-12-11T09:33:54;0.20;99.90
28336;DHT22;15592;53.656;7.276;2022-12-11T09:36:21;0.20;99.90
28336;DHT22;15592;53.656;7.276;2022-12-11T09:38:47;0.20;99.90
28336;DHT22;15592;53.656;7.276;2022-12-11T09:41:26;0.10;99.90
28336;DHT22;15592;53.656;7.276;2022-12-11T09:46:39;0.20;99.90
28336;DHT22;15592;53.656;7.276;2022-12-11T09:49:16;0.20;99.90
28336;DHT22;15592;53.656;7.276;2022-12-11T09:51:51;0.20;99.90
28336;DHT22;15592;53.656;7.276;2022-12-11T09:54:22;0.20;99.90
28336;DHT22;15592;53.656;7.276;2022-12-11T10:07:54;0.20;99.90
28336;DHT22;15592;53.656;7.276;2022-12-11T10:18:22;0.20;99.90
28336;DHT22;15592;53.656;7.276;2022-12-11T10:20:51;0.20;99.90
28336;DHT22;15592;53.656;7.276;2022-12-11T10:23:21;0.10;99.90
28336;DHT22;15592;53.656;7.276;2022-12-11T10:25:55;0.10;99.90
28336;DHT22;15592;53.656;7.276;2022-12-11T10:28:25;0.20;99.90
28336;DHT22;15592;53.656;7.276;2022-12-11T10:31:10;0.20;99.90
28336;DHT22;15592;53.656;7.276;2022-12-11T10:36:40;0.20;99.90
28336;DHT22;15592;53.656;7.276;2022-12-11T10:39:18;0.20;99.90
28336;DHT22;15592;53.656;7.276;2022-12-11T10:41:46;0.20;99.90
28336;DHT22;15592;53.656;7.276;2022-12-11T10:44:21;0.20;99.90
28336;DHT22;15592;53.656;7.276;2022-12-11T10:47:05;0.20;99.90
28336;DHT22;15592;53.656;7.276;2022-12-11T10:49:33;0.20;99.90
28336;DHT22;15592;53.656;7.276;2022-12-11T10:52:00;0.20;99.90
28336;DHT22;15592;53.656;7.276;2022-12-11T10:54:42;0.20;99.90
28336;DHT22;15592;53.656;7.276;2022-12-11T10:57:09;0.10;99.90
28336;DHT22;15592;53.656;7.276;2022-12-11T10:59:39;0.20;99.90
28336;DHT22;15592;53.656;7.276;2022-12-11T11:04:46;0.20;99.90
28336;DHT22;15592;53.656;7.276;2022-12-11T11:07:26;0.20;99.90
28336;DHT22;15592;53.656;7.276;2022-12-11T11:12:49;0.30;99.90
28336;DHT22;15592;53.656;7.276;2022-12-11T11:15:27;0.20;99.90
28336;DHT22;15592;53.656;7.276;2022-12-11T11:17:55;0.30;99.90
28336;DHT22;15592;53.656;7.276;2022-12-11T11:20:27;0.30;99.90
28336;DHT22;15592;53.656;7.276;2022-12-11T11:22:55;0.30;99.90
28336;DHT22;15592;53.656;7.276;2022-12-11T11:25:24;0.30;99.90
28336;DHT22;15592;53.656;7.276;2022-12-11T11:28:17;0.40;99.90
28336;DHT22;15592;53.656;7.276;2022-12-11T11:33:21;0.40;99.90
28336;DHT22;15592;53.656;7.276;2022-12-11T11:35:56;0.40;99.90
28336;DHT22;15592;53.656;7.276;2022-12-11T11:38:29;0.40;99.90
28336;DHT22;15592;53.656;7.276;2022-12-11T11:41:20;0.40;99.90
28336;DHT22;15592;53.656;7.276;2022-12-11T11:44:01;0.40;99.90
28336;DHT22;15592;53.656;7.276;2022-12-11T11:52:35;0.50;99.90
28336;DHT22;15592;53.656;7.276;2022-12-11T11:56:05;0.50;99.90
28336;DHT22;15592;53.656;7.276;2022-12-11T11:58:29;0.50;99.90
28336;DHT22;15592;53.656;7.276;2022-12-11T12:00:56;0.50;99.90
28336;DHT22;15592;53.656;7.276;2022-12-11T12:03:23;0.50;99.90
28336;DHT22;15592;53.656;7.276;2022-12-11T12:14:31;0.60;99.90
28336;DHT22;15592;53.656;7.276;2022-12-11T12:20:16;0.60;99.90
28336;DHT22;15592;53.656;7.276;2022-12-11T12:27:54;0.70;99.90
28336;DHT22;15592;53.656;7.276;2022-12-11T12:30:23;0.60;99.90
28336;DHT22;15592;53.656;7.276;2022-12-11T12:33:14;0.60;99.90
28336;DHT22;15592;53.656;7.276;2022-12-11T12:46:52;0.60;99.90
28336;DHT22;15592;53.656;7.276;2022-12-11T12:49:46;0.60;99.90
28336;DHT22;15592;53.656;7.276;2022-12-11T12:52:23;0.60;99.90
28336;DHT22;15592;53.656;7.276;2022-12-11T12:55:02;0.60;99.90
28336;DHT22;15592;53.656;7.276;2022-12-11T12:57:44;0.60;99.90
28336;DHT22;15592;53.656;7.276;2022-12-11T13:00:11;0.70;99.90
28336;DHT22;15592;53.656;7.276;2022-12-11T13:02:48;0.60;99.90
28336;DHT22;15592;53.656;7.276;2022-12-11T13:05:29;0.70;99.90
28336;DHT22;15592;53.656;7.276;2022-12-11T13:08:00;0.60;99.90
28336;DHT22;15592;53.656;7.276;2022-12-11T13:12:55;0.60;99.90
28336;DHT22;15592;53.656;7.276;2022-12-11T13:15:36;0.60;99.90
28336;DHT22;15592;53.656;7.276;2022-12-11T13:18:32;0.60;99.90
28336;DHT22;15592;53.656;7.276;2022-12-11T13:20:59;0.60;99.90
28336;DHT22;15592;53.656;7.276;2022-12-11T13:25:55;0.60;99.90
28336;DHT22;15592;53.656;7.276;2022-12-11T13:29:26;0.70;99.90
28336;DHT22;15592;53.656;7.276;2022-12-11T13:31:58;0.70;99.90
28336;DHT22;15592;53.656;7.276;2022-12-11T13:34:24;0.70;99.90
28336;DHT22;15592;53.656;7.276;2022-12-11T13:36:53;0.70;99.90
28336;DHT22;15592;53.656;7.276;2022-12-11T13:39:26;0.70;99.90
28336;DHT22;15592;53.656;7.276;2022-12-11T13:42:05;0.70;99.90
28336;DHT22;15592;53.656;7.276;2022-12-11T13:44:37;0.60;99.90
28336;DHT22;15592;53.656;7.276;2022-12-11T13:47:05;0.70;99.90
28336;DHT22;15592;53.656;7.276;2022-12-11T13:49:37;0.60;99.90
28336;DHT22;15592;53.656;7.276;2022-12-11T13:52:06;0.60;99.90
28336;DHT22;15592;53.656;7.276;2022-12-11T13:54:34;0.60;99.90
28336;DHT22;15592;53.656;7.276;2022-12-11T13:59:37;0.70;99.90
28336;DHT22;15592;53.656;7.276;2022-12-11T14:02:29;0.70;99.90
28336;DHT22;15592;53.656;7.276;2022-12-11T14:05:03;0.60;99.90
28336;DHT22;15592;53.656;7.276;2022-12-11T14:07:48;0.60;99.90
28336;DHT22;15592;53.656;7.276;2022-12-11T14:10:18;0.60;99.90
28336;DHT22;15592;53.656;7.276;2022-12-11T14:12:54;0.70;99.90
28336;DHT22;15592;53.656;7.276;2022-12-11T14:15:21;0.60;99.90
28336;DHT22;15592;53.656;7.276;2022-12-11T14:17:48;0.70;99.90
28336;DHT22;15592;53.656;7.276;2022-12-11T14:20:26;0.70;99.90
28336;DHT22;15592;53.656;7.276;2022-12-11T14:23:49;0.60;99.90
28336;DHT22;15592;53.656;7.276;2022-12-11T14:26:20;0.60;99.90
28336;DHT22;15592;53.656;7.276;2022-12-11T14:28:45;0.60;99.90
28336;DHT22;15592;53.656;7.276;2022-12-11T14:31:26;0.60;99.90
28336;DHT22;15592;53.656;7.276;2022-12-11T14:33:57;0.60;99.90
28336;DHT22;15592;53.656;7.276;2022-12-11T14:36:25;0.60;99.90
28336;DHT22;15592;53.656;7.276;2022-12-11T14:38:55;0.60;99.90
28336;DHT22;15592;53.656;7.276;2022-12-11T14:41:46;0.60;99.90
28336;DHT22;15592;53.656;7.276;2022-12-11T14:44:15;0.60;99.90
28336;DHT22;15592;53.656;7.276;2022-12-11T14:46:51;0.60;99.90
28336;DHT22;15592;53.656;7.276;2022-12-11T14:49:33;0.60;99.90
28336;DHT22;15592;53.656;7.276;2022-12-11T14:52:02;0.60;99.90
28336;DHT22;15592;53.656;7.276;2022-12-11T14:54:36;0.60;99.90
28336;DHT22;15592;53.656;7.276;2022-12-11T14:57:05;0.60;99.90
28336;DHT22;15592;53.656;7.276;2022-12-11T14:59:37;0.60;99.90
28336;DHT22;15592;53.656;7.276;2022-12-11T15:02:30;0.60;99.90
28336;DHT22;15592;53.656;7.276;2022-12-11T15:07:38;0.60;99.90
28336;DHT22;15592;53.656;7.276;2022-12-11T15:10:04;0.60;99.90
28336;DHT22;15592;53.656;7.276;2022-12-11T15:12:30;0.60;99.90
28336;DHT22;15592;53.656;7.276;2022-12-11T15:15:02;0.60;99.90
28336;DHT22;15592;53.656;7.276;2022-12-11T15:17:29;0.60;99.90
28336;DHT22;15592;53.656;7.276;2022-12-11T15:20:02;0.60;99.90
28336;DHT22;15592;53.656;7.276;2022-12-11T15:22:30;0.60;99.90
28336;DHT22;15592;53.656;7.276;2022-12-11T15:24:57;0.60;99.90
28336;DHT22;15592;53.656;7.276;2022-12-11T15:27:33;0.60;99.90
28336;DHT22;15592;53.656;7.276;2022-12-11T15:35:34;0.60;99.90
28336;DHT22;15592;53.656;7.276;2022-12-11T15:38:00;0.60;99.90
28336;DHT22;15592;53.656;7.276;2022-12-11T15:40:26;0.60;99.90
28336;DHT22;15592;53.656;7.276;2022-12-11T15:42:53;0.50;99.90
28336;DHT22;15592;53.656;7.276;2022-12-11T15:45:26;0.60;99.90
28336;DHT22;15592;53.656;7.276;2022-12-11T15:47:54;0.60;99.90
28336;DHT22;15592;53.656;7.276;2022-12-11T15:52:48;0.50;99.90
28336;DHT22;15592;53.656;7.276;2022-12-11T15:55:14;0.50;99.90
28336;DHT22;15592;53.656;7.276;2022-12-11T15:57:52;0.50;99.90
28336;DHT22;15592;53.656;7.276;2022-12-11T16:00:19;0.50;99.90
28336;DHT22;15592;53.656;7.276;2022-12-11T16:02:45;0.50;99.90
28336;DHT22;15592;53.656;7.276;2022-12-11T16:05:11;0.50;99.90
28336;DHT22;15592;53.656;7.276;2022-12-11T16:07:37;0.50;99.90
28336;DHT22;15592;53.656;7.276;2022-12-11T16:10:04;0.50;99.90
28336;DHT22;15592;53.656;7.276;2022-12-11T16:12:30;0.50;99.90
28336;DHT22;15592;53.656;7.276;2022-12-11T16:14:56;0.50;99.90
28336;DHT22;15592;53.656;7.276;2022-12-11T16:17:22;0.50;99.90
28336;DHT22;15592;53.656;7.276;2022-12-11T16:19:48;0.50;99.90
28336;DHT22;15592;53.656;7.276;2022-12-11T16:22:13;0.50;99.90
28336;DHT22;15592;53.656;7.276;2022-12-11T16:24:40;0.50;99.90
28336;DHT22;15592;53.656;7.276;2022-12-11T16:27:06;0.50;99.90
28336;DHT22;15592;53.656;7.276;2022-12-11T16:29:39;0.50;99.90
28336;DHT22;15592;53.656;7.276;2022-12-11T16:32:06;0.50;99.90
28336;DHT22;15592;53.656;7.276;2022-12-11T16:34:33;0.50;99.90
28336;DHT22;15592;53.656;7.276;2022-12-11T16:36:59;0.50;99.90
28336;DHT22;15592;53.656;7.276;2022-12-11T16:39:26;0.50;99.90
28336;DHT22;15592;53.656;7.276;2022-12-11T16:41:51;0.50;99.90
28336;DHT22;15592;53.656;7.276;2022-12-11T16:44:23;0.50;99.90
28336;DHT22;15592;53.656;7.276;2022-12-11T16:46:50;0.50;99.90
28336;DHT22;15592;53.656;7.276;2022-12-11T16:49:16;0.50;99.90
28336;DHT22;15592;53.656;7.276;2022-12-11T16:51:42;0.40;99.90
28336;DHT22;15592;53.656;7.276;2022-12-11T16:54:09;0.50;99.90
28336;DHT22;15592;53.656;7.276;2022-12-11T16:56:35;0.50;99.90
28336;DHT22;15592;53.656;7.276;2022-12-11T16:59:00;0.50;99.90
28336;DHT22;15592;53.656;7.276;2022-12-11T17:01:26;0.50;99.90
28336;DHT22;15592;53.656;7.276;2022-12-11T17:03:52;0.40;99.90
28336;DHT22;15592;53.656;7.276;2022-12-11T17:06:18;0.50;99.90
28336;DHT22;15592;53.656;7.276;2022-12-11T17:08:44;0.50;99.90
28336;DHT22;15592;53.656;7.276;2022-12-11T17:11:18;0.50;99.90
28336;DHT22;15592;53.656;7.276;2022-12-11T17:13:44;0.50;99.90
28336;DHT22;15592;53.656;7.276;2022-12-11T17:16:13;0.50;99.90
28336;DHT22;15592;53.656;7.276;2022-12-11T17:18:39;0.50;99.90
28336;DHT22;15592;53.656;7.276;2022-12-11T17:21:11;0.50;99.90
28336;DHT22;15592;53.656;7.276;2022-12-11T17:23:37;0.50;99.90
28336;DHT22;15592;53.656;7.276;2022-12-11T17:26:04;0.50;99.90
28336;DHT22;15592;53.656;7.276;2022-12-11T17:28:30;0.50;99.90
28336;DHT22;15592;53.656;7.276;2022-12-11T17:30:56;0.40;99.90
28336;DHT22;15592;53.656;7.276;2022-12-11T17:33:22;0.50;99.90
28336;DHT22;15592;53.656;7.276;2022-12-11T17:35:48;0.50;99.90